1VA4 weather

Evergreen Heliport
Marshall, Virginia, United States

Public forecast

Using degrees Fahrenheit for public forecast. Weather courtesy of forecast.io.

METAR (pilot weather report)

Closest report is Leesburg Executive Airport, 14.9 nm (27.5 km) NE. Retrieved 2019/05/19 13:35 UTC (17 minutes ago):

KJYO 191335Z AUTO 13004KT 7SM OVC006 20/19 A3005 RMK AO2

TAF (pilot weather forecast)

Closest forecast is Washington Dulles International Airport, 17.0 nm (31.4 km) E. Retrieved 2019/05/19 12:40 UTC (1 hour ago):

TAF KIAD 191138Z 1912/2018 VRB03KT P6SM OVC015 FM191400 18005KT P6SM SCT025 FM192000 19010G20KT P6SM VCTS SCT060CB FM200300 18009KT P6SM SCT060 FM201100 21007KT P6SM BKN250 FM201500 23010G19KT P6SM BKN050